Time;durP1;ratioP1;P1;durP2;ratioP2;P2;SDS_P1;SDS_P2;PMS_P1;PMS_P2;Temp;Humidity;BMP_temperature;BMP_pressure;BME280_temperature;BME280_humidity;BME280_pressure;Samples;Min_cycle;Max_cycle;Signal;HPM_P1;HPM_P2
2024/02/24 00:01:25;;;;;;;5.07;2.27;;;4.50;75.50;;;;;;5049558;28;20213;-74
2024/02/24 00:03:51;;;;;;;5.63;2.47;;;4.60;74.00;;;;;;5044371;28;20212;-74
2024/02/24 00:06:16;;;;;;;3.53;2.47;;;4.80;72.90;;;;;;5045115;28;20188;-74
2024/02/24 00:08:42;;;;;;;6.23;2.67;;;4.90;72.30;;;;;;5051140;28;20192;-75
2024/02/24 00:11:08;;;;;;;7.77;2.60;;;5.00;72.30;;;;;;5043232;28;20204;-72
2024/02/24 00:13:34;;;;;;;5.63;2.70;;;5.00;72.10;;;;;;5046406;28;20189;-73
2024/02/24 00:15:59;;;;;;;4.97;2.77;;;5.10;72.10;;;;;;5048092;28;20481;-73
2024/02/24 00:18:25;;;;;;;6.00;2.80;;;5.20;72.40;;;;;;5051656;28;20615;-73
2024/02/24 00:20:51;;;;;;;4.70;2.93;;;5.10;72.30;;;;;;5046048;28;20200;-73
2024/02/24 00:23:16;;;;;;;8.50;3.00;;;5.20;72.00;;;;;;5042199;28;20185;-71
2024/02/24 00:25:42;;;;;;;6.27;3.47;;;5.10;72.30;;;;;;5044827;28;20286;-71
2024/02/24 00:28:09;;;;;;;6.10;3.23;;;5.00;72.90;;;;;;5050584;28;20188;-73
2024/02/24 00:30:35;;;;;;;8.27;3.43;;;5.00;73.30;;;;;;5046149;28;20205;-73
2024/02/24 00:33:00;;;;;;;5.43;3.10;;;5.00;73.60;;;;;;5043094;28;20502;-74
2024/02/24 00:35:28;;;;;;;6.80;3.27;;;4.90;73.60;;;;;;5040969;28;20435;-72
2024/02/24 00:37:57;;;;;;;7.53;2.50;;;4.90;73.90;;;;;;5050409;28;20173;-75
2024/02/24 00:40:23;;;;;;;6.80;3.30;;;5.00;73.70;;;;;;5049115;28;20446;-73
2024/02/24 00:42:49;;;;;;;6.93;3.50;;;4.90;73.70;;;;;;5041205;28;20764;-71
2024/02/24 00:45:15;;;;;;;6.80;3.10;;;4.90;74.00;;;;;;5034658;28;20851;-71
2024/02/24 00:47:40;;;;;;;8.07;3.40;;;4.90;74.50;;;;;;5040907;28;20217;-73
2024/02/24 00:50:06;;;;;;;5.57;3.13;;;4.80;74.30;;;;;;5050959;28;20184;-74
2024/02/24 00:52:35;;;;;;;6.30;3.07;;;4.80;74.80;;;;;;5042737;28;20188;-74
2024/02/24 00:55:01;;;;;;;7.07;3.33;;;4.70;75.10;;;;;;5049469;28;20410;-72
2024/02/24 00:57:26;;;;;;;8.50;3.20;;;4.80;74.80;;;;;;5042955;28;20427;-73
2024/02/24 00:59:52;;;;;;;6.73;3.93;;;4.70;74.90;;;;;;5043060;28;20212;-73
2024/02/24 01:02:18;;;;;;;5.13;3.10;;;4.50;75.50;;;;;;5048514;28;20703;-72
2024/02/24 01:04:44;;;;;;;5.73;2.63;;;4.40;75.80;;;;;;5041300;28;20216;-73
2024/02/24 01:07:12;;;;;;;7.13;3.00;;;4.40;76.10;;;;;;5050775;28;20619;-74
2024/02/24 01:09:38;;;;;;;5.87;2.70;;;4.30;76.20;;;;;;5047815;28;20465;-73
2024/02/24 01:12:04;;;;;;;3.93;2.57;;;4.30;76.50;;;;;;5048400;28;20450;-71
2024/02/24 01:14:31;;;;;;;5.87;2.70;;;4.30;76.70;;;;;;5047166;28;20454;-74
2024/02/24 01:16:56;;;;;;;3.80;2.77;;;4.30;77.10;;;;;;5049467;28;20415;-73
2024/02/24 01:19:22;;;;;;;9.83;3.10;;;4.30;77.10;;;;;;5051743;28;20438;-74
2024/02/24 01:21:48;;;;;;;4.67;2.80;;;4.10;77.30;;;;;;5048390;28;20588;-75
2024/02/24 01:24:14;;;;;;;8.73;2.70;;;4.00;77.80;;;;;;5055727;28;20208;-71
2024/02/24 01:26:40;;;;;;;5.50;3.13;;;4.00;78.00;;;;;;5050484;28;20603;-75
2024/02/24 01:29:05;;;;;;;5.53;2.87;;;4.00;78.30;;;;;;5047717;28;20506;-71
2024/02/24 01:31:31;;;;;;;4.43;2.37;;;4.00;78.30;;;;;;5045068;28;20212;-71
2024/02/24 01:33:57;;;;;;;5.37;2.70;;;4.00;78.40;;;;;;5041611;28;20276;-71
2024/02/24 01:36:24;;;;;;;4.50;2.70;;;4.10;78.40;;;;;;5046102;28;20411;-72
2024/02/24 01:38:50;;;;;;;4.13;2.73;;;4.10;77.80;;;;;;5047439;28;20424;-70
2024/02/24 01:41:16;;;;;;;4.07;2.40;;;4.20;77.70;;;;;;5042819;28;20595;-72
2024/02/24 01:43:41;;;;;;;4.77;2.47;;;4.10;77.60;;;;;;5021926;28;20232;-71
2024/02/24 01:46:08;;;;;;;5.83;2.90;;;4.10;77.80;;;;;;5025674;28;20559;-70
2024/02/24 01:48:35;;;;;;;4.00;2.50;;;4.20;77.60;;;;;;5042983;28;20719;-71
2024/02/24 01:51:02;;;;;;;4.43;2.33;;;4.30;77.60;;;;;;5043015;28;20982;-71
2024/02/24 01:53:29;;;;;;;2.97;1.80;;;4.50;76.70;;;;;;5040804;28;20442;-72
2024/02/24 01:55:55;;;;;;;4.23;2.30;;;4.70;76.50;;;;;;5045622;28;20464;-74
2024/02/24 01:58:21;;;;;;;3.27;2.03;;;4.80;75.40;;;;;;5044993;28;20506;-74
2024/02/24 02:00:47;;;;;;;5.00;2.30;;;4.90;75.50;;;;;;5045502;28;20455;-76
2024/02/24 02:03:13;;;;;;;4.63;3.00;;;5.00;75.50;;;;;;5040071;28;20851;-71
2024/02/24 02:05:40;;;;;;;5.10;2.00;;;5.20;74.90;;;;;;5050691;28;20477;-72
2024/02/24 02:08:06;;;;;;;3.67;1.93;;;5.20;74.20;;;;;;5046532;28;20423;-73
2024/02/24 02:10:48;;;;;;;4.07;2.40;;;5.30;73.90;;;;;;5043721;28;20450;-70
2024/02/24 02:13:14;;;;;;;4.07;2.10;;;5.40;73.30;;;;;;5042636;28;20431;-72
2024/02/24 02:15:43;;;;;;;6.27;2.50;;;5.50;72.90;;;;;;5048121;28;20427;-72
2024/02/24 02:18:10;;;;;;;4.70;2.10;;;5.70;72.70;;;;;;5047654;28;20514;-72
2024/02/24 02:20:35;;;;;;;4.90;2.30;;;5.70;73.00;;;;;;5039693;28;20534;-71
2024/02/24 02:23:01;;;;;;;4.10;2.03;;;5.70;73.60;;;;;;5044778;28;20502;-73
2024/02/24 02:25:27;;;;;;;4.10;2.40;;;5.60;74.00;;;;;;5043928;28;20748;-71
2024/02/24 02:27:52;;;;;;;4.33;2.30;;;5.70;74.20;;;;;;5046557;28;20418;-71
2024/02/24 02:30:18;;;;;;;5.27;3.00;;;5.60;74.30;;;;;;5045446;28;20180;-76
2024/02/24 02:32:44;;;;;;;4.87;2.13;;;5.60;74.90;;;;;;5048670;28;20270;-73
2024/02/24 02:35:10;;;;;;;3.87;2.60;;;5.50;75.10;;;;;;5055339;28;20200;-74
2024/02/24 02:37:36;;;;;;;4.30;2.10;;;5.50;75.50;;;;;;5049403;28;20249;-71
2024/02/24 02:40:03;;;;;;;1.83;1.57;;;5.40;75.70;;;;;;5056469;28;20458;-72
2024/02/24 02:42:28;;;;;;;3.77;2.20;;;5.40;76.40;;;;;;5046470;28;20247;-71
2024/02/24 02:44:54;;;;;;;5.03;2.17;;;5.40;76.70;;;;;;5045687;28;20467;-72
2024/02/24 02:47:20;;;;;;;6.67;2.30;;;5.40;76.80;;;;;;5049511;28;20184;-73
2024/02/24 02:49:46;;;;;;;4.17;2.00;;;5.20;77.00;;;;;;5047543;28;20535;-72
2024/02/24 02:52:12;;;;;;;4.00;2.00;;;5.30;77.60;;;;;;5044527;28;20994;-70
2024/02/24 02:54:37;;;;;;;3.00;1.40;;;5.30;77.60;;;;;;5047319;28;20192;-73
2024/02/24 02:57:03;;;;;;;2.80;1.63;;;5.30;77.60;;;;;;5045375;28;20182;-72
2024/02/24 02:59:29;;;;;;;3.13;1.70;;;5.30;77.70;;;;;;5046324;28;20194;-72
2024/02/24 03:01:57;;;;;;;2.17;1.47;;;5.20;77.80;;;;;;5037442;28;20470;-74
2024/02/24 03:04:22;;;;;;;3.00;1.67;;;5.10;78.00;;;;;;5028517;28;20359;-71
2024/02/24 03:06:48;;;;;;;3.87;2.37;;;5.10;78.10;;;;;;5047832;28;21003;-73
2024/02/24 03:09:14;;;;;;;3.20;1.93;;;5.10;78.30;;;;;;5046604;28;20244;-71
2024/02/24 03:11:39;;;;;;;3.77;1.53;;;5.20;78.10;;;;;;5049476;28;20208;-75
2024/02/24 03:14:05;;;;;;;3.40;1.90;;;5.20;77.80;;;;;;5049549;28;20189;-73
2024/02/24 03:16:30;;;;;;;1.63;1.40;;;5.20;77.70;;;;;;5051236;28;20188;-73
2024/02/24 03:18:56;;;;;;;2.27;1.30;;;5.30;77.60;;;;;;5052256;28;20195;-72
2024/02/24 03:21:32;;;;;;;2.40;1.30;;;5.30;77.70;;;;;;5043887;28;20204;-74
2024/02/24 03:24:01;;;;;;;3.33;1.40;;;5.30;77.80;;;;;;5049990;28;20207;-74
2024/02/24 03:26:27;;;;;;;3.23;1.80;;;5.30;78.00;;;;;;5052992;28;20446;-73
2024/02/24 03:28:53;;;;;;;5.10;1.60;;;5.30;77.80;;;;;;5050364;28;20513;-72
2024/02/24 03:31:19;;;;;;;2.00;1.63;;;5.30;77.60;;;;;;5045398;28;20872;-71
2024/02/24 03:33:44;;;;;;;2.50;1.40;;;5.40;77.70;;;;;;5046877;28;20415;-72
2024/02/24 03:36:18;;;;;;;2.80;1.20;;;5.30;77.60;;;;;;5054222;28;20197;-74
2024/02/24 03:38:44;;;;;;;5.50;1.10;;;5.40;77.30;;;;;;5051569;28;20218;-72
2024/02/24 03:41:10;;;;;;;1.90;1.17;;;5.40;76.80;;;;;;5047876;28;21077;-74
2024/02/24 03:43:37;;;;;;;2.17;1.20;;;5.40;76.80;;;;;;5050713;28;20192;-73
2024/02/24 03:46:03;;;;;;;3.57;1.60;;;5.40;76.80;;;;;;5049896;28;20418;-72
2024/02/24 03:48:32;;;;;;;2.17;1.40;;;5.30;77.30;;;;;;5051883;28;20403;-70
2024/02/24 03:50:59;;;;;;;1.97;1.27;;;5.30;77.60;;;;;;5045117;28;20448;-73
2024/02/24 03:53:25;;;;;;;1.77;1.00;;;5.20;77.80;;;;;;5051297;28;20419;-72
2024/02/24 03:55:51;;;;;;;2.00;1.10;;;5.20;77.80;;;;;;5043906;28;20438;-73
2024/02/24 03:58:18;;;;;;;2.50;1.47;;;5.20;77.80;;;;;;5043141;28;20793;-73
2024/02/24 04:00:44;;;;;;;2.50;1.10;;;5.10;77.70;;;;;;5042170;28;21126;-71
2024/02/24 04:03:09;;;;;;;2.60;0.90;;;5.10;77.70;;;;;;5041659;28;20942;-74
2024/02/24 04:05:35;;;;;;;1.37;1.03;;;5.10;77.60;;;;;;5052562;28;20450;-71
2024/02/24 04:08:01;;;;;;;1.50;1.10;;;5.20;77.60;;;;;;5054014;28;20645;-71
2024/02/24 04:10:26;;;;;;;2.03;1.20;;;5.20;77.60;;;;;;5050067;28;20181;-72
2024/02/24 04:12:52;;;;;;;1.43;1.10;;;5.20;77.40;;;;;;5051148;28;20189;-72
2024/02/24 04:15:21;;;;;;;2.40;1.27;;;5.10;77.30;;;;;;5051722;28;20176;-72
2024/02/24 04:17:48;;;;;;;2.37;1.37;;;5.10;77.60;;;;;;5042182;28;20196;-74
2024/02/24 04:20:14;;;;;;;2.80;1.20;;;5.10;77.60;;;;;;5051975;28;20431;-71
2024/02/24 04:22:41;;;;;;;1.80;1.20;;;5.10;77.60;;;;;;5041451;28;20438;-74
2024/02/24 04:25:07;;;;;;;2.77;1.57;;;5.10;77.80;;;;;;5048572;28;20477;-72
2024/02/24 04:27:33;;;;;;;2.20;1.37;;;5.00;78.00;;;;;;5052905;28;20489;-73
2024/02/24 04:29:58;;;;;;;1.20;1.07;;;5.00;78.10;;;;;;5051375;28;20804;-72
2024/02/24 04:32:24;;;;;;;2.37;1.40;;;4.90;78.30;;;;;;5046131;28;20294;-72
2024/02/24 04:34:49;;;;;;;2.30;1.30;;;4.90;78.40;;;;;;5048190;28;20246;-70
2024/02/24 04:37:15;;;;;;;9.80;1.67;;;4.90;78.60;;;;;;5052630;28;20234;-71
2024/02/24 04:39:41;;;;;;;2.10;1.30;;;4.80;78.60;;;;;;5049473;28;20729;-73
2024/02/24 04:42:07;;;;;;;3.03;1.50;;;4.90;78.90;;;;;;5041149;28;20929;-72
2024/02/24 04:44:32;;;;;;;1.63;1.37;;;4.80;78.60;;;;;;5045322;28;20220;-74
2024/02/24 04:46:58;;;;;;;1.50;1.30;;;4.80;78.90;;;;;;5044032;28;20444;-71
2024/02/24 04:49:23;;;;;;;2.77;1.80;;;4.80;78.70;;;;;;5053555;28;20181;-72
2024/02/24 04:51:49;;;;;;;2.63;1.40;;;4.90;78.40;;;;;;5044236;28;20212;-72
2024/02/24 04:54:16;;;;;;;4.50;1.43;;;4.90;78.30;;;;;;5029477;28;20200;-72
2024/02/24 04:56:41;;;;;;;2.07;1.20;;;5.00;78.30;;;;;;5051963;28;20190;-71
2024/02/24 04:59:07;;;;;;;1.57;1.17;;;5.00;78.30;;;;;;5048008;28;20787;-73
2024/02/24 05:01:33;;;;;;;4.23;1.20;;;5.00;78.40;;;;;;5047826;28;20213;-72
2024/02/24 05:03:58;;;;;;;2.13;1.70;;;4.90;78.40;;;;;;5042648;28;20232;-73
2024/02/24 05:06:24;;;;;;;2.27;1.30;;;4.90;78.60;;;;;;5050069;28;20176;-70
2024/02/24 05:08:49;;;;;;;2.53;1.50;;;4.90;78.70;;;;;;5048402;28;20187;-72
2024/02/24 05:11:15;;;;;;;4.20;1.60;;;5.00;78.70;;;;;;5045784;28;20266;-72
2024/02/24 05:13:41;;;;;;;3.33;1.33;;;5.00;78.70;;;;;;5044459;28;20208;-75
2024/02/24 05:16:06;;;;;;;1.50;1.20;;;5.00;78.70;;;;;;5050576;28;20207;-71
2024/02/24 05:18:33;;;;;;;2.27;1.10;;;5.00;78.70;;;;;;5050315;28;20246;-72
2024/02/24 05:20:59;;;;;;;2.10;1.20;;;5.00;78.40;;;;;;5044399;28;20193;-72
2024/02/24 05:23:25;;;;;;;2.20;1.03;;;5.00;78.60;;;;;;5043696;28;20433;-71
2024/02/24 05:25:51;;;;;;;1.67;1.20;;;5.10;78.70;;;;;;5050797;28;21081;-72
2024/02/24 05:28:16;;;;;;;1.90;1.30;;;5.10;78.40;;;;;;5045232;28;20267;-70
2024/02/24 05:30:42;;;;;;;2.13;1.13;;;5.10;78.40;;;;;;5047601;28;20835;-71
2024/02/24 05:33:08;;;;;;;1.80;1.30;;;5.20;78.10;;;;;;5050065;28;20188;-73
2024/02/24 05:35:34;;;;;;;2.13;1.30;;;5.30;78.00;;;;;;5047663;28;20268;-71
2024/02/24 05:37:59;;;;;;;3.67;1.00;;;5.40;77.80;;;;;;5048361;28;20511;-72
2024/02/24 05:40:25;;;;;;;2.33;1.50;;;5.40;77.60;;;;;;5050442;28;20180;-71
2024/02/24 05:42:51;;;;;;;1.30;1.00;;;5.50;77.10;;;;;;5043364;28;20238;-69
2024/02/24 05:45:17;;;;;;;2.77;1.30;;;5.50;77.10;;;;;;5044518;28;20196;-72
2024/02/24 05:47:43;;;;;;;3.03;1.30;;;5.50;77.00;;;;;;5047525;28;20418;-72
2024/02/24 05:50:09;;;;;;;1.63;1.20;;;5.60;77.30;;;;;;5051393;28;20176;-72
2024/02/24 05:52:35;;;;;;;1.80;1.30;;;5.60;77.10;;;;;;5040539;28;20466;-73
2024/02/24 05:55:02;;;;;;;2.00;1.30;;;5.60;77.30;;;;;;5030747;28;20954;-72
2024/02/24 05:57:28;;;;;;;1.80;1.10;;;5.60;77.00;;;;;;5048747;28;20419;-71
2024/02/24 05:59:54;;;;;;;4.23;1.20;;;5.60;76.70;;;;;;5045624;28;20435;-73
2024/02/24 06:02:19;;;;;;;2.40;1.23;;;5.60;76.50;;;;;;5024796;28;20204;-73
2024/02/24 06:04:45;;;;;;;2.63;1.23;;;5.70;76.20;;;;;;5047012;28;20864;-73
2024/02/24 06:07:11;;;;;;;1.80;1.20;;;5.70;75.80;;;;;;5048263;28;20560;-73
2024/02/24 06:09:36;;;;;;;1.80;1.30;;;5.70;75.70;;;;;;5049977;28;20199;-70
2024/02/24 06:12:02;;;;;;;2.60;1.43;;;5.80;75.50;;;;;;5043067;28;20212;-73
2024/02/24 06:14:28;;;;;;;4.53;1.30;;;5.70;75.20;;;;;;5053279;28;20184;-72
2024/02/24 06:16:53;;;;;;;2.60;1.57;;;5.70;75.20;;;;;;5053937;28;20482;-74
2024/02/24 06:19:19;;;;;;;3.43;1.57;;;5.70;75.20;;;;;;5055706;28;20212;-73
2024/02/24 06:21:44;;;;;;;2.87;1.67;;;5.70;75.40;;;;;;5046148;28;20216;-70
2024/02/24 06:24:10;;;;;;;4.93;2.13;;;5.60;75.50;;;;;;5035643;28;20259;-72
2024/02/24 06:26:35;;;;;;;2.70;1.50;;;5.70;75.70;;;;;;5050368;28;20188;-74
2024/02/24 06:29:01;;;;;;;4.07;2.13;;;5.70;75.90;;;;;;5050627;28;20191;-73
2024/02/24 06:31:27;;;;;;;3.60;1.90;;;5.70;75.90;;;;;;5042622;28;20212;-72
2024/02/24 06:33:53;;;;;;;2.87;1.57;;;5.70;76.20;;;;;;5025318;28;20798;-73
2024/02/24 06:36:19;;;;;;;4.63;1.73;;;5.70;76.20;;;;;;5050419;28;20539;-73
2024/02/24 06:38:44;;;;;;;6.40;1.83;;;5.60;76.40;;;;;;5050601;28;20497;-72
2024/02/24 06:41:10;;;;;;;7.90;1.80;;;5.60;76.20;;;;;;5030130;28;20235;-75
2024/02/24 06:43:36;;;;;;;2.20;1.73;;;5.60;76.40;;;;;;5044409;28;20192;-72
2024/02/24 06:46:01;;;;;;;2.80;1.77;;;5.50;76.50;;;;;;5052788;28;20180;-73
2024/02/24 06:48:27;;;;;;;3.80;1.53;;;5.40;77.00;;;;;;5057446;28;20234;-72
2024/02/24 06:50:52;;;;;;;3.83;1.53;;;5.40;77.10;;;;;;5051254;28;20208;-72
2024/02/24 06:53:18;;;;;;;4.13;1.33;;;5.40;77.30;;;;;;5051548;28;20187;-74
2024/02/24 06:55:43;;;;;;;1.43;1.23;;;5.50;77.60;;;;;;5052627;28;20245;-74
2024/02/24 06:58:09;;;;;;;1.90;1.27;;;5.50;77.60;;;;;;5052429;28;20253;-72
2024/02/24 07:00:35;;;;;;;1.40;1.20;;;5.50;77.70;;;;;;5045090;28;20201;-72
2024/02/24 07:03:01;;;;;;;3.43;1.73;;;5.50;77.70;;;;;;5045107;28;20268;-71
2024/02/24 07:05:26;;;;;;;2.03;1.20;;;5.50;77.80;;;;;;5051078;28;20557;-72
2024/02/24 07:07:52;;;;;;;1.70;1.40;;;5.40;78.00;;;;;;5047960;28;20314;-72
2024/02/24 07:10:17;;;;;;;1.47;1.23;;;5.40;78.10;;;;;;5052931;28;20735;-72
2024/02/24 07:12:44;;;;;;;2.27;1.50;;;5.40;78.30;;;;;;5046430;28;20192;-70
2024/02/24 07:15:10;;;;;;;2.47;1.33;;;5.40;78.30;;;;;;5042896;28;20546;-74
2024/02/24 07:17:35;;;;;;;1.93;1.40;;;5.40;78.60;;;;;;5052032;28;20419;-71
2024/02/24 07:20:01;;;;;;;2.27;1.67;;;5.50;78.60;;;;;;5051878;28;20422;-73
2024/02/24 07:22:27;;;;;;;4.93;1.33;;;5.40;78.60;;;;;;5044396;28;20224;-73
2024/02/24 07:24:53;;;;;;;2.03;1.30;;;5.40;78.70;;;;;;5046364;28;20917;-72
2024/02/24 07:27:18;;;;;;;1.87;1.10;;;5.50;79.00;;;;;;5052976;28;20216;-72
2024/02/24 07:29:44;;;;;;;3.70;1.33;;;5.50;79.00;;;;;;5053465;28;20180;-73
2024/02/24 07:32:09;;;;;;;2.33;1.27;;;5.50;79.00;;;;;;5045815;28;20223;-75
2024/02/24 07:34:35;;;;;;;13.37;1.93;;;5.50;79.20;;;;;;5043752;28;20268;-73
2024/02/24 07:37:01;;;;;;;8.13;1.87;;;5.60;79.20;;;;;;5050415;28;20264;-73
2024/02/24 07:39:27;;;;;;;3.40;1.50;;;5.50;79.20;;;;;;5049953;28;20188;-74
2024/02/24 07:41:53;;;;;;;6.93;1.40;;;5.50;79.20;;;;;;5046611;28;20867;-73
2024/02/24 07:44:19;;;;;;;12.20;1.40;;;5.60;79.20;;;;;;5043914;28;20204;-72
2024/02/24 07:46:45;;;;;;;2.03;0.90;;;5.60;77.40;;;;;;5050794;28;20946;-71
2024/02/24 07:49:10;;;;;;;4.43;1.23;;;5.70;77.10;;;;;;5052264;28;20184;-75
2024/02/24 07:51:36;;;;;;;1.50;1.00;;;5.70;76.80;;;;;;5047787;28;20601;-73
2024/02/24 07:54:02;;;;;;;2.10;0.90;;;5.80;76.70;;;;;;5043622;28;20596;-72
2024/02/24 07:56:27;;;;;;;7.17;1.60;;;5.80;76.70;;;;;;5051561;28;20180;-72
2024/02/24 07:58:53;;;;;;;8.17;1.40;;;5.80;76.50;;;;;;5050494;28;20180;-73
2024/02/24 08:01:19;;;;;;;1.60;1.07;;;5.80;76.70;;;;;;5043235;28;20213;-73
2024/02/24 08:03:44;;;;;;;8.17;1.50;;;5.80;75.90;;;;;;5048258;28;20192;-74
2024/02/24 08:06:10;;;;;;;3.10;1.10;;;5.80;75.20;;;;;;5052835;28;20443;-74
2024/02/24 08:08:39;;;;;;;2.80;1.10;;;5.80;74.90;;;;;;5053950;28;20200;-71
2024/02/24 08:11:04;;;;;;;1.40;0.80;;;5.80;74.00;;;;;;5049940;28;20216;-74
2024/02/24 08:13:31;;;;;;;4.80;1.30;;;5.80;73.90;;;;;;5047347;28;20439;-71
2024/02/24 08:16:00;;;;;;;3.73;1.00;;;5.90;74.30;;;;;;5052843;28;20208;-73
2024/02/24 08:18:25;;;;;;;1.40;0.93;;;5.80;73.90;;;;;;5047770;28;20454;-72
2024/02/24 08:20:52;;;;;;;9.20;1.30;;;5.80;73.90;;;;;;5045916;28;20496;-74
2024/02/24 08:23:18;;;;;;;1.00;0.63;;;5.70;74.30;;;;;;5050309;28;20188;-71
2024/02/24 08:25:44;;;;;;;3.07;0.90;;;5.70;74.50;;;;;;5053616;28;20470;-73
2024/02/24 08:28:10;;;;;;;7.83;1.50;;;5.70;74.60;;;;;;5051586;28;20256;-73
2024/02/24 08:30:35;;;;;;;6.73;1.43;;;5.70;74.60;;;;;;5043071;28;20463;-73
2024/02/24 08:33:01;;;;;;;1.60;1.00;;;5.70;74.60;;;;;;5046915;28;20208;-74
2024/02/24 08:35:26;;;;;;;1.03;0.80;;;5.60;74.60;;;;;;5046967;28;20184;-71
2024/02/24 08:37:52;;;;;;;9.30;1.47;;;5.60;74.80;;;;;;5050270;28;20234;-72
2024/02/24 08:40:18;;;;;;;1.00;0.80;;;5.60;74.90;;;;;;5043779;28;20442;-73
2024/02/24 08:42:44;;;;;;;0.80;0.70;;;5.60;74.80;;;;;;5044754;28;20251;-72
2024/02/24 08:45:10;;;;;;;2.17;0.90;;;5.60;74.30;;;;;;5044271;28;20200;-74
2024/02/24 08:47:36;;;;;;;3.60;1.00;;;5.70;74.80;;;;;;5051757;28;20199;-71
2024/02/24 08:50:01;;;;;;;8.27;1.30;;;5.70;74.60;;;;;;5053458;28;20419;-71
2024/02/24 08:52:27;;;;;;;2.20;1.00;;;5.80;73.70;;;;;;5040938;28;20208;-74
2024/02/24 08:54:53;;;;;;;1.30;0.83;;;5.90;73.70;;;;;;5043949;28;20537;-74
2024/02/24 08:57:18;;;;;;;3.77;1.37;;;6.00;73.30;;;;;;5051217;28;20188;-73
2024/02/24 08:59:46;;;;;;;4.70;1.20;;;6.10;72.90;;;;;;5049385;28;20189;-72
2024/02/24 09:02:14;;;;;;;1.73;0.83;;;6.20;72.40;;;;;;5049631;28;20292;-73
2024/02/24 09:04:40;;;;;;;2.93;0.97;;;6.20;71.60;;;;;;5048146;28;20566;-76
2024/02/24 09:07:06;;;;;;;4.10;0.90;;;6.30;71.30;;;;;;5056142;28;20455;-74
2024/02/24 09:09:31;;;;;;;1.30;0.70;;;6.30;71.30;;;;;;5054243;28;20238;-73
2024/02/24 09:11:57;;;;;;;1.20;0.80;;;6.40;71.10;;;;;;5050320;28;20499;-72
2024/02/24 09:14:22;;;;;;;1.40;1.00;;;6.40;71.00;;;;;;5049938;28;20260;-73
2024/02/24 09:16:48;;;;;;;1.20;0.90;;;6.50;70.80;;;;;;5051418;28;20637;-72
2024/02/24 09:19:14;;;;;;;1.30;0.80;;;6.60;70.10;;;;;;5052541;28;20586;-71
2024/02/24 09:21:43;;;;;;;1.30;0.93;;;6.60;70.20;;;;;;5048973;28;20228;-73
2024/02/24 09:24:09;;;;;;;1.33;0.87;;;6.70;70.10;;;;;;5030358;28;20300;-73
2024/02/24 09:26:34;;;;;;;2.80;1.10;;;6.80;69.70;;;;;;5048306;28;20498;-74
2024/02/24 09:29:00;;;;;;;5.43;0.80;;;6.80;69.70;;;;;;5048521;28;20181;-74
2024/02/24 09:31:28;;;;;;;1.40;0.70;;;6.90;69.50;;;;;;5046705;28;20236;-71
2024/02/24 09:33:55;;;;;;;2.33;1.00;;;6.90;69.20;;;;;;5052560;28;20423;-73
2024/02/24 09:36:22;;;;;;;1.50;1.10;;;7.10;68.90;;;;;;5050058;28;20443;-74
2024/02/24 09:38:48;;;;;;;1.20;0.80;;;7.20;68.90;;;;;;5050639;28;20438;-72
2024/02/24 09:41:17;;;;;;;2.67;0.90;;;7.40;68.00;;;;;;5039828;28;20598;-77
2024/02/24 09:43:43;;;;;;;3.33;1.67;;;7.50;67.60;;;;;;5050090;28;20208;-72
2024/02/24 09:46:10;;;;;;;1.13;0.70;;;7.70;67.70;;;;;;5051390;28;20442;-73
2024/02/24 09:48:36;;;;;;;6.83;0.90;;;7.70;66.70;;;;;;5048123;28;20899;-76
2024/02/24 09:51:04;;;;;;;2.00;0.77;;;7.70;66.90;;;;;;5042115;28;20521;-74
2024/02/24 09:53:34;;;;;;;1.87;0.93;;;7.90;66.70;;;;;;5033002;28;20439;-75
2024/02/24 09:56:00;;;;;;;2.63;1.00;;;8.00;66.30;;;;;;5046131;28;20537;-72
2024/02/24 09:58:30;;;;;;;1.90;0.97;;;8.10;66.00;;;;;;5047928;28;20431;-74
2024/02/24 10:00:55;;;;;;;1.63;0.90;;;8.10;65.10;;;;;;5039360;28;20458;-73
2024/02/24 10:03:24;;;;;;;2.03;0.90;;;8.00;65.60;;;;;;5039075;28;20428;-71
2024/02/24 10:05:50;;;;;;;3.10;1.00;;;8.00;65.70;;;;;;5050876;28;20216;-74
2024/02/24 10:08:15;;;;;;;1.43;1.00;;;8.20;65.70;;;;;;5055554;28;20469;-72
2024/02/24 10:10:41;;;;;;;1.93;0.90;;;8.40;64.50;;;;;;5049751;28;20235;-72
2024/02/24 10:13:06;;;;;;;1.03;0.70;;;8.50;64.10;;;;;;5049294;28;20276;-71
2024/02/24 10:15:34;;;;;;;1.00;0.70;;;8.40;64.50;;;;;;5051159;28;20188;-75
2024/02/24 10:18:03;;;;;;;2.10;0.87;;;8.40;64.50;;;;;;5053013;28;20634;-75
2024/02/24 10:20:29;;;;;;;2.13;0.80;;;8.40;64.10;;;;;;5051957;28;20450;-72
2024/02/24 10:22:56;;;;;;;1.20;0.70;;;8.50;64.40;;;;;;5056184;28;20431;-73
2024/02/24 10:25:22;;;;;;;3.27;1.20;;;8.60;63.90;;;;;;5047162;28;20481;-71
2024/02/24 10:27:48;;;;;;;0.90;0.60;;;8.60;63.70;;;;;;5052929;28;20419;-73
2024/02/24 10:30:14;;;;;;;1.40;0.70;;;8.60;63.40;;;;;;5036436;28;20488;-75
2024/02/24 10:32:41;;;;;;;1.87;0.70;;;8.60;63.70;;;;;;5041903;28;20482;-76
2024/02/24 10:35:11;;;;;;;0.90;0.60;;;8.60;62.90;;;;;;5047309;28;20496;-72
2024/02/24 10:37:36;;;;;;;5.43;0.90;;;8.60;63.20;;;;;;5048059;28;21181;-73
2024/02/24 10:40:06;;;;;;;2.03;0.90;;;8.70;62.50;;;;;;5047021;28;20430;-75
2024/02/24 10:42:32;;;;;;;1.67;0.90;;;8.70;62.00;;;;;;5046127;28;20204;-73
2024/02/24 10:44:58;;;;;;;2.20;0.80;;;8.90;61.90;;;;;;5049708;28;20462;-70
2024/02/24 10:47:24;;;;;;;2.00;0.97;;;9.00;61.00;;;;;;5050121;28;20427;-71
2024/02/24 10:49:50;;;;;;;1.40;0.90;;;9.00;61.00;;;;;;5031836;28;20212;-72
2024/02/24 10:52:18;;;;;;;2.40;0.90;;;9.10;60.90;;;;;;5045693;28;20850;-73
2024/02/24 10:54:45;;;;;;;4.10;0.80;;;9.30;60.40;;;;;;5037617;28;20825;-71
2024/02/24 10:57:13;;;;;;;1.10;0.70;;;9.50;60.40;;;;;;5046470;28;20978;-72
2024/02/24 10:59:39;;;;;;;2.37;1.00;;;9.30;59.90;;;;;;5048371;28;20422;-74
2024/02/24 11:02:11;;;;;;;1.03;0.60;;;9.20;61.20;;;;;;5049161;28;20459;-72
2024/02/24 11:04:38;;;;;;;1.07;0.63;;;9.00;60.10;;;;;;5047103;28;20982;-73
2024/02/24 11:07:18;;;;;;;2.40;0.90;;;9.00;60.00;;;;;;5048876;28;20423;-73
2024/02/24 11:09:50;;;;;;;3.40;1.00;;;9.10;60.40;;;;;;5051269;28;20443;-73
2024/02/24 11:12:20;;;;;;;1.23;0.93;;;9.20;59.50;;;;;;5038594;28;20466;-74
2024/02/24 11:14:49;;;;;;;1.03;0.77;;;9.50;59.30;;;;;;5047765;28;20430;-72
2024/02/24 11:17:48;;;;;;;1.90;0.70;;;9.60;58.70;;;;;;5047816;28;20791;-72
2024/02/24 11:20:33;;;;;;;2.10;0.77;;;9.70;58.20;;;;;;5038756;28;20424;-72
2024/02/24 11:23:24;;;;;;;1.10;0.70;;;9.60;58.70;;;;;;5048757;28;20422;-72
2024/02/24 11:26:12;;;;;;;0.77;0.57;;;9.60;58.80;;;;;;5046922;28;20482;-73
2024/02/24 11:28:40;;;;;;;1.00;0.80;;;9.80;57.60;;;;;;5049103;28;20439;-73
2024/02/24 11:31:06;;;;;;;1.57;0.77;;;10.00;56.90;;;;;;5039897;28;20478;-73
2024/02/24 11:33:38;;;;;;;2.10;0.77;;;10.00;56.60;;;;;;5052458;28;20415;-73
2024/02/24 11:36:04;;;;;;;0.90;0.60;;;9.50;56.50;;;;;;5052954;28;20427;-72
2024/02/24 11:38:31;;;;;;;1.00;0.80;;;9.40;57.40;;;;;;5052744;28;20431;-73
2024/02/24 11:40:57;;;;;;;2.33;0.73;;;9.30;58.10;;;;;;5045927;28;20538;-74
2024/02/24 11:43:23;;;;;;;1.90;0.80;;;9.20;58.90;;;;;;5054177;28;20431;-73
2024/02/24 11:45:51;;;;;;;1.87;0.83;;;9.30;59.10;;;;;;5053898;28;20516;-73
2024/02/24 11:48:18;;;;;;;1.40;0.80;;;9.10;58.70;;;;;;5054747;28;20267;-71
2024/02/24 11:50:44;;;;;;;1.20;0.80;;;9.30;58.90;;;;;;5049348;28;20448;-71
2024/02/24 11:53:11;;;;;;;1.97;0.77;;;9.30;59.90;;;;;;5034148;28;20431;-75
2024/02/24 11:55:37;;;;;;;1.80;0.80;;;9.30;59.50;;;;;;5050054;28;20439;-72
2024/02/24 11:58:07;;;;;;;1.17;0.60;;;9.20;60.10;;;;;;5056906;28;20427;-72
2024/02/24 12:00:36;;;;;;;2.50;0.80;;;9.20;60.10;;;;;;5050235;28;20601;-78
2024/02/24 12:03:18;;;;;;;1.27;0.80;;;9.20;59.90;;;;;;5044816;28;20423;-70
2024/02/24 12:05:44;;;;;;;1.23;0.80;;;9.30;60.30;;;;;;5047575;28;20466;-72
2024/02/24 12:08:19;;;;;;;1.83;1.00;;;9.20;60.60;;;;;;5032390;28;20439;-75
2024/02/24 12:10:45;;;;;;;1.23;0.80;;;9.30;59.90;;;;;;5041500;28;20466;-73
2024/02/24 12:13:12;;;;;;;1.13;0.70;;;9.50;59.90;;;;;;5053362;28;20426;-73
2024/02/24 12:15:40;;;;;;;0.77;0.50;;;9.90;58.70;;;;;;5048207;28;20431;-72
2024/02/24 12:18:06;;;;;;;1.53;0.87;;;9.90;58.00;;;;;;5055256;28;20435;-75
2024/02/24 12:20:38;;;;;;;2.20;0.60;;;9.90;57.30;;;;;;5042950;28;20710;-73
2024/02/24 12:23:05;;;;;;;1.80;0.80;;;9.90;56.60;;;;;;5049365;28;20507;-76
2024/02/24 12:25:31;;;;;;;2.30;1.23;;;9.90;56.60;;;;;;5053428;28;20463;-70
2024/02/24 12:27:57;;;;;;;1.30;0.90;;;10.10;56.20;;;;;;5049506;28;20419;-73
2024/02/24 12:30:23;;;;;;;1.53;0.90;;;10.10;56.80;;;;;;5053784;28;20418;-75
2024/02/24 12:32:49;;;;;;;2.63;1.30;;;10.00;56.60;;;;;;5050709;28;20219;-73
2024/02/24 12:35:15;;;;;;;2.33;0.73;;;10.00;57.30;;;;;;5047569;28;20419;-73
2024/02/24 12:37:43;;;;;;;1.27;0.90;;;10.10;57.20;;;;;;5047572;28;20457;-73
2024/02/24 12:40:35;;;;;;;1.40;1.00;;;10.00;57.70;;;;;;5052219;28;20431;-72
2024/02/24 12:43:02;;;;;;;1.40;0.97;;;10.10;57.20;;;;;;5045140;28;20415;-71
2024/02/24 12:45:28;;;;;;;0.90;0.60;;;10.10;56.60;;;;;;5043048;28;20454;-73
2024/02/24 12:47:54;;;;;;;2.10;0.97;;;10.30;55.60;;;;;;5050801;28;20420;-71
2024/02/24 12:50:22;;;;;;;1.30;0.90;;;10.20;55.30;;;;;;5051316;28;20188;-76
2024/02/24 12:52:49;;;;;;;1.00;0.70;;;10.20;56.00;;;;;;5040447;28;20189;-74